sensor_id;sensor_type;location;lat;lon;timestamp;P1;durP1;ratioP1;P2;durP2;ratioP2
64498;SDS011;51087;55.718;21.122;2022-10-23T00:00:36;21.73;;;10.18;;
64498;SDS011;51087;55.718;21.122;2022-10-23T00:03:02;20.85;;;11.63;;
64498;SDS011;51087;55.718;21.122;2022-10-23T00:05:28;24.17;;;12.85;;
64498;SDS011;51087;55.718;21.122;2022-10-23T00:07:54;33.05;;;12.02;;
64498;SDS011;51087;55.718;21.122;2022-10-23T00:10:23;27.42;;;13.23;;
64498;SDS011;51087;55.718;21.122;2022-10-23T00:12:50;31.38;;;14.20;;
64498;SDS011;51087;55.718;21.122;2022-10-23T00:15:17;25.02;;;12.00;;
64498;SDS011;51087;55.718;21.122;2022-10-23T00:17:44;27.40;;;13.60;;
64498;SDS011;51087;55.718;21.122;2022-10-23T00:20:10;30.88;;;14.10;;
64498;SDS011;51087;55.718;21.122;2022-10-23T00:22:36;41.72;;;15.68;;
64498;SDS011;51087;55.718;21.122;2022-10-23T00:25:03;35.40;;;15.13;;
64498;SDS011;51087;55.718;21.122;2022-10-23T00:27:30;54.85;;;16.80;;
64498;SDS011;51087;55.718;21.122;2022-10-23T00:29:56;55.47;;;16.90;;
64498;SDS011;51087;55.718;21.122;2022-10-23T00:32:21;42.25;;;15.23;;
64498;SDS011;51087;55.718;21.122;2022-10-23T00:34:47;34.70;;;13.75;;
64498;SDS011;51087;55.718;21.122;2022-10-23T00:37:12;24.00;;;12.20;;
64498;SDS011;51087;55.718;21.122;2022-10-23T00:39:37;29.33;;;11.75;;
64498;SDS011;51087;55.718;21.122;2022-10-23T00:42:03;33.60;;;11.80;;
64498;SDS011;51087;55.718;21.122;2022-10-23T00:46:54;18.73;;;10.30;;
64498;SDS011;51087;55.718;21.122;2022-10-23T00:49:20;14.65;;;8.70;;
64498;SDS011;51087;55.718;21.122;2022-10-23T00:51:48;14.38;;;8.77;;
64498;SDS011;51087;55.718;21.122;2022-10-23T00:54:26;19.30;;;9.40;;
64498;SDS011;51087;55.718;21.122;2022-10-23T00:56:56;16.17;;;9.38;;
64498;SDS011;51087;55.718;21.122;2022-10-23T00:59:23;15.55;;;9.20;;
64498;SDS011;51087;55.718;21.122;2022-10-23T01:01:49;18.88;;;8.77;;
64498;SDS011;51087;55.718;21.122;2022-10-23T01:04:14;12.50;;;7.75;;
64498;SDS011;51087;55.718;21.122;2022-10-23T01:09:18;15.25;;;9.27;;
64498;SDS011;51087;55.718;21.122;2022-10-23T01:17:54;13.90;;;9.38;;
64498;SDS011;51087;55.718;21.122;2022-10-23T01:20:42;20.38;;;8.95;;
64498;SDS011;51087;55.718;21.122;2022-10-23T01:28:36;16.27;;;8.40;;
64498;SDS011;51087;55.718;21.122;2022-10-23T01:31:09;14.77;;;9.18;;
64498;SDS011;51087;55.718;21.122;2022-10-23T01:33:42;11.30;;;8.05;;
64498;SDS011;51087;55.718;21.122;2022-10-23T01:36:12;10.73;;;6.68;;
64498;SDS011;51087;55.718;21.122;2022-10-23T01:38:57;9.98;;;6.50;;
64498;SDS011;51087;55.718;21.122;2022-10-23T01:44:33;8.93;;;6.10;;
64498;SDS011;51087;55.718;21.122;2022-10-23T01:47:05;13.63;;;6.95;;
64498;SDS011;51087;55.718;21.122;2022-10-23T01:49:33;11.43;;;6.00;;
64498;SDS011;51087;55.718;21.122;2022-10-23T01:52:02;10.05;;;5.65;;
64498;SDS011;51087;55.718;21.122;2022-10-23T01:54:32;7.28;;;4.97;;
64498;SDS011;51087;55.718;21.122;2022-10-23T01:57:03;10.48;;;5.63;;
64498;SDS011;51087;55.718;21.122;2022-10-23T01:59:32;11.05;;;5.10;;
64498;SDS011;51087;55.718;21.122;2022-10-23T02:02:01;7.93;;;4.90;;
64498;SDS011;51087;55.718;21.122;2022-10-23T02:04:46;7.38;;;3.97;;
64498;SDS011;51087;55.718;21.122;2022-10-23T02:07:18;7.93;;;3.78;;
64498;SDS011;51087;55.718;21.122;2022-10-23T02:09:44;4.50;;;3.15;;
64498;SDS011;51087;55.718;21.122;2022-10-23T02:12:16;5.47;;;3.13;;
64498;SDS011;51087;55.718;21.122;2022-10-23T02:21:17;5.85;;;3.22;;
64498;SDS011;51087;55.718;21.122;2022-10-23T02:23:38;5.25;;;3.33;;
64498;SDS011;51087;55.718;21.122;2022-10-23T02:26:21;7.43;;;4.20;;
64498;SDS011;51087;55.718;21.122;2022-10-23T02:28:52;9.13;;;3.70;;
64498;SDS011;51087;55.718;21.122;2022-10-23T02:31:23;16.23;;;3.85;;
64498;SDS011;51087;55.718;21.122;2022-10-23T02:33:48;11.18;;;3.58;;
64498;SDS011;51087;55.718;21.122;2022-10-23T02:36:17;4.28;;;2.75;;
64498;SDS011;51087;55.718;21.122;2022-10-23T02:38:43;13.43;;;3.22;;
64498;SDS011;51087;55.718;21.122;2022-10-23T02:44:13;14.27;;;3.47;;
64498;SDS011;51087;55.718;21.122;2022-10-23T03:00:06;20.00;;;3.10;;
64498;SDS011;51087;55.718;21.122;2022-10-23T03:02:40;23.55;;;3.25;;
64498;SDS011;51087;55.718;21.122;2022-10-23T03:05:19;23.20;;;2.90;;
64498;SDS011;51087;55.718;21.122;2022-10-23T03:10:14;12.88;;;2.90;;
64498;SDS011;51087;55.718;21.122;2022-10-23T03:12:39;9.45;;;2.90;;
64498;SDS011;51087;55.718;21.122;2022-10-23T03:15:06;17.58;;;3.08;;
64498;SDS011;51087;55.718;21.122;2022-10-23T03:17:32;17.15;;;2.78;;
64498;SDS011;51087;55.718;21.122;2022-10-23T03:19:58;23.20;;;2.72;;
64498;SDS011;51087;55.718;21.122;2022-10-23T03:22:23;23.08;;;2.30;;
64498;SDS011;51087;55.718;21.122;2022-10-23T03:24:49;10.88;;;2.38;;
64498;SDS011;51087;55.718;21.122;2022-10-23T03:27:14;5.13;;;2.30;;
64498;SDS011;51087;55.718;21.122;2022-10-23T03:29:40;18.48;;;2.38;;
64498;SDS011;51087;55.718;21.122;2022-10-23T03:32:06;9.55;;;2.38;;
64498;SDS011;51087;55.718;21.122;2022-10-23T03:34:32;16.02;;;2.30;;
64498;SDS011;51087;55.718;21.122;2022-10-23T03:36:58;9.35;;;2.60;;
64498;SDS011;51087;55.718;21.122;2022-10-23T03:39:24;9.23;;;2.22;;
64498;SDS011;51087;55.718;21.122;2022-10-23T03:41:50;16.17;;;2.20;;
64498;SDS011;51087;55.718;21.122;2022-10-23T03:44:15;16.33;;;2.60;;
64498;SDS011;51087;55.718;21.122;2022-10-23T03:46:41;40.28;;;3.70;;
64498;SDS011;51087;55.718;21.122;2022-10-23T03:49:07;15.13;;;2.53;;
64498;SDS011;51087;55.718;21.122;2022-10-23T03:51:33;16.30;;;4.40;;
64498;SDS011;51087;55.718;21.122;2022-10-23T03:53:58;16.65;;;3.47;;
64498;SDS011;51087;55.718;21.122;2022-10-23T03:56:24;12.05;;;3.25;;
64498;SDS011;51087;55.718;21.122;2022-10-23T03:58:49;16.23;;;3.13;;
64498;SDS011;51087;55.718;21.122;2022-10-23T04:01:15;10.20;;;2.78;;
64498;SDS011;51087;55.718;21.122;2022-10-23T04:03:40;12.02;;;2.38;;
64498;SDS011;51087;55.718;21.122;2022-10-23T04:06:06;8.90;;;2.80;;
64498;SDS011;51087;55.718;21.122;2022-10-23T04:08:31;6.15;;;2.22;;
64498;SDS011;51087;55.718;21.122;2022-10-23T04:10:57;4.30;;;2.60;;
64498;SDS011;51087;55.718;21.122;2022-10-23T04:13:22;6.97;;;2.58;;
64498;SDS011;51087;55.718;21.122;2022-10-23T04:15:48;11.13;;;3.20;;
64498;SDS011;51087;55.718;21.122;2022-10-23T04:18:15;10.05;;;2.85;;
64498;SDS011;51087;55.718;21.122;2022-10-23T04:20:41;5.78;;;2.38;;
64498;SDS011;51087;55.718;21.122;2022-10-23T04:23:06;5.90;;;1.98;;
64498;SDS011;51087;55.718;21.122;2022-10-23T04:25:32;4.72;;;1.70;;
64498;SDS011;51087;55.718;21.122;2022-10-23T04:27:57;2.65;;;1.90;;
64498;SDS011;51087;55.718;21.122;2022-10-23T04:30:23;4.20;;;1.60;;
64498;SDS011;51087;55.718;21.122;2022-10-23T04:32:49;1.95;;;1.58;;
64498;SDS011;51087;55.718;21.122;2022-10-23T04:35:16;3.15;;;1.67;;
64498;SDS011;51087;55.718;21.122;2022-10-23T04:37:42;2.33;;;1.58;;
64498;SDS011;51087;55.718;21.122;2022-10-23T04:40:08;2.35;;;1.45;;
64498;SDS011;51087;55.718;21.122;2022-10-23T04:42:34;2.40;;;1.40;;
64498;SDS011;51087;55.718;21.122;2022-10-23T04:45:00;2.83;;;1.50;;
64498;SDS011;51087;55.718;21.122;2022-10-23T04:47:25;3.78;;;1.55;;
64498;SDS011;51087;55.718;21.122;2022-10-23T04:49:50;3.50;;;1.50;;
64498;SDS011;51087;55.718;21.122;2022-10-23T04:52:16;4.90;;;1.77;;
64498;SDS011;51087;55.718;21.122;2022-10-23T04:54:41;2.88;;;1.50;;
64498;SDS011;51087;55.718;21.122;2022-10-23T04:57:07;2.33;;;1.60;;
64498;SDS011;51087;55.718;21.122;2022-10-23T04:59:32;4.22;;;1.77;;
64498;SDS011;51087;55.718;21.122;2022-10-23T05:01:58;3.72;;;1.90;;
64498;SDS011;51087;55.718;21.122;2022-10-23T05:04:23;4.30;;;1.95;;
64498;SDS011;51087;55.718;21.122;2022-10-23T05:06:49;4.03;;;2.45;;
64498;SDS011;51087;55.718;21.122;2022-10-23T05:09:14;3.83;;;1.77;;
64498;SDS011;51087;55.718;21.122;2022-10-23T05:11:40;4.32;;;1.70;;
64498;SDS011;51087;55.718;21.122;2022-10-23T05:14:05;3.85;;;1.70;;
64498;SDS011;51087;55.718;21.122;2022-10-23T05:19:02;4.65;;;1.50;;
64498;SDS011;51087;55.718;21.122;2022-10-23T05:21:30;1.67;;;1.33;;
64498;SDS011;51087;55.718;21.122;2022-10-23T05:23:59;3.30;;;1.40;;
64498;SDS011;51087;55.718;21.122;2022-10-23T05:26:26;2.90;;;1.60;;
64498;SDS011;51087;55.718;21.122;2022-10-23T05:28:51;3.50;;;1.45;;
64498;SDS011;51087;55.718;21.122;2022-10-23T05:31:17;6.50;;;1.80;;
64498;SDS011;51087;55.718;21.122;2022-10-23T05:33:44;3.05;;;1.60;;
64498;SDS011;51087;55.718;21.122;2022-10-23T05:36:10;3.80;;;1.50;;
64498;SDS011;51087;55.718;21.122;2022-10-23T05:38:37;5.05;;;1.67;;
64498;SDS011;51087;55.718;21.122;2022-10-23T05:41:02;2.28;;;1.50;;
64498;SDS011;51087;55.718;21.122;2022-10-23T05:43:28;3.40;;;1.45;;
64498;SDS011;51087;55.718;21.122;2022-10-23T05:45:55;2.65;;;1.50;;
64498;SDS011;51087;55.718;21.122;2022-10-23T05:48:21;2.40;;;1.58;;
64498;SDS011;51087;55.718;21.122;2022-10-23T05:50:47;13.98;;;1.90;;
64498;SDS011;51087;55.718;21.122;2022-10-23T05:53:12;2.67;;;1.60;;
64498;SDS011;51087;55.718;21.122;2022-10-23T05:55:37;3.45;;;1.50;;
64498;SDS011;51087;55.718;21.122;2022-10-23T05:58:03;3.13;;;1.77;;
64498;SDS011;51087;55.718;21.122;2022-10-23T06:00:29;6.70;;;1.75;;
64498;SDS011;51087;55.718;21.122;2022-10-23T06:02:54;6.25;;;1.80;;
64498;SDS011;51087;55.718;21.122;2022-10-23T06:05:20;9.90;;;1.55;;
64498;SDS011;51087;55.718;21.122;2022-10-23T06:07:45;4.60;;;1.42;;
64498;SDS011;51087;55.718;21.122;2022-10-23T06:10:11;4.63;;;1.52;;
64498;SDS011;51087;55.718;21.122;2022-10-23T06:12:37;4.30;;;1.80;;
64498;SDS011;51087;55.718;21.122;2022-10-23T06:15:03;8.25;;;1.60;;
64498;SDS011;51087;55.718;21.122;2022-10-23T06:17:29;6.55;;;1.67;;
64498;SDS011;51087;55.718;21.122;2022-10-23T06:19:54;2.47;;;1.45;;
64498;SDS011;51087;55.718;21.122;2022-10-23T06:22:25;7.22;;;1.40;;
64498;SDS011;51087;55.718;21.122;2022-10-23T06:24:52;13.25;;;1.70;;
64498;SDS011;51087;55.718;21.122;2022-10-23T06:27:17;5.80;;;1.63;;
64498;SDS011;51087;55.718;21.122;2022-10-23T06:29:43;6.43;;;1.60;;
64498;SDS011;51087;55.718;21.122;2022-10-23T06:32:08;16.58;;;1.70;;
64498;SDS011;51087;55.718;21.122;2022-10-23T06:34:34;12.57;;;1.83;;
64498;SDS011;51087;55.718;21.122;2022-10-23T06:36:59;12.35;;;1.40;;
64498;SDS011;51087;55.718;21.122;2022-10-23T06:39:24;21.23;;;1.80;;
64498;SDS011;51087;55.718;21.122;2022-10-23T06:41:50;3.00;;;1.42;;
64498;SDS011;51087;55.718;21.122;2022-10-23T06:44:15;5.00;;;1.30;;
64498;SDS011;51087;55.718;21.122;2022-10-23T06:46:41;5.35;;;1.70;;
64498;SDS011;51087;55.718;21.122;2022-10-23T06:49:06;4.57;;;1.77;;
64498;SDS011;51087;55.718;21.122;2022-10-23T06:51:32;18.67;;;1.77;;
64498;SDS011;51087;55.718;21.122;2022-10-23T06:53:57;15.55;;;1.98;;
64498;SDS011;51087;55.718;21.122;2022-10-23T06:56:23;13.05;;;2.10;;
64498;SDS011;51087;55.718;21.122;2022-10-23T06:58:53;4.03;;;2.03;;
64498;SDS011;51087;55.718;21.122;2022-10-23T07:01:18;4.40;;;1.83;;
64498;SDS011;51087;55.718;21.122;2022-10-23T07:03:44;6.75;;;1.60;;
64498;SDS011;51087;55.718;21.122;2022-10-23T07:06:09;7.43;;;1.40;;
64498;SDS011;51087;55.718;21.122;2022-10-23T07:08:35;6.57;;;1.40;;
64498;SDS011;51087;55.718;21.122;2022-10-23T07:11:05;7.72;;;1.52;;
64498;SDS011;51087;55.718;21.122;2022-10-23T07:13:32;10.50;;;2.05;;
64498;SDS011;51087;55.718;21.122;2022-10-23T07:15:58;13.32;;;2.25;;
64498;SDS011;51087;55.718;21.122;2022-10-23T07:18:32;9.30;;;1.90;;
64498;SDS011;51087;55.718;21.122;2022-10-23T07:20:57;10.15;;;2.20;;
64498;SDS011;51087;55.718;21.122;2022-10-23T07:23:23;20.73;;;1.50;;
64498;SDS011;51087;55.718;21.122;2022-10-23T07:25:48;7.38;;;1.55;;
64498;SDS011;51087;55.718;21.122;2022-10-23T07:28:13;6.43;;;1.42;;
64498;SDS011;51087;55.718;21.122;2022-10-23T07:30:39;1.88;;;1.05;;
64498;SDS011;51087;55.718;21.122;2022-10-23T07:33:05;1.73;;;1.25;;
64498;SDS011;51087;55.718;21.122;2022-10-23T07:35:30;5.45;;;1.55;;
64498;SDS011;51087;55.718;21.122;2022-10-23T07:37:58;1.80;;;1.30;;
64498;SDS011;51087;55.718;21.122;2022-10-23T07:40:24;8.32;;;1.60;;
64498;SDS011;51087;55.718;21.122;2022-10-23T07:42:49;8.80;;;2.03;;
64498;SDS011;51087;55.718;21.122;2022-10-23T07:45:15;10.88;;;1.77;;
64498;SDS011;51087;55.718;21.122;2022-10-23T07:47:40;11.35;;;1.77;;
64498;SDS011;51087;55.718;21.122;2022-10-23T07:50:06;5.07;;;1.52;;
64498;SDS011;51087;55.718;21.122;2022-10-23T07:52:33;17.23;;;2.30;;
64498;SDS011;51087;55.718;21.122;2022-10-23T07:54:59;14.10;;;1.75;;
64498;SDS011;51087;55.718;21.122;2022-10-23T07:57:25;18.20;;;2.13;;
64498;SDS011;51087;55.718;21.122;2022-10-23T07:59:51;3.15;;;1.70;;
64498;SDS011;51087;55.718;21.122;2022-10-23T08:02:16;3.00;;;1.48;;
64498;SDS011;51087;55.718;21.122;2022-10-23T08:04:42;2.50;;;1.50;;
64498;SDS011;51087;55.718;21.122;2022-10-23T08:07:07;3.85;;;1.40;;
64498;SDS011;51087;55.718;21.122;2022-10-23T08:09:33;2.97;;;1.60;;
64498;SDS011;51087;55.718;21.122;2022-10-23T08:11:59;2.53;;;1.55;;
64498;SDS011;51087;55.718;21.122;2022-10-23T08:14:25;3.20;;;1.52;;
64498;SDS011;51087;55.718;21.122;2022-10-23T08:16:51;3.78;;;1.60;;
64498;SDS011;51087;55.718;21.122;2022-10-23T08:19:16;3.45;;;1.50;;
64498;SDS011;51087;55.718;21.122;2022-10-23T08:21:42;1.63;;;1.40;;
64498;SDS011;51087;55.718;21.122;2022-10-23T08:24:08;2.40;;;1.45;;
64498;SDS011;51087;55.718;21.122;2022-10-23T08:26:37;2.90;;;1.40;;
64498;SDS011;51087;55.718;21.122;2022-10-23T08:29:03;2.45;;;1.58;;
64498;SDS011;51087;55.718;21.122;2022-10-23T08:31:29;3.80;;;1.40;;
64498;SDS011;51087;55.718;21.122;2022-10-23T08:33:54;8.05;;;1.30;;
64498;SDS011;51087;55.718;21.122;2022-10-23T08:38:46;25.40;;;1.95;;
64498;SDS011;51087;55.718;21.122;2022-10-23T08:41:22;30.80;;;2.55;;
64498;SDS011;51087;55.718;21.122;2022-10-23T08:43:50;5.90;;;1.40;;
64498;SDS011;51087;55.718;21.122;2022-10-23T08:46:25;8.73;;;1.80;;
64498;SDS011;51087;55.718;21.122;2022-10-23T08:49:18;12.57;;;1.55;;
64498;SDS011;51087;55.718;21.122;2022-10-23T08:52:01;14.48;;;1.65;;
64498;SDS011;51087;55.718;21.122;2022-10-23T08:54:43;8.90;;;1.50;;
64498;SDS011;51087;55.718;21.122;2022-10-23T08:57:35;7.50;;;1.25;;
64498;SDS011;51087;55.718;21.122;2022-10-23T09:00:10;1.15;;;0.95;;
64498;SDS011;51087;55.718;21.122;2022-10-23T09:02:41;4.22;;;1.15;;
64498;SDS011;51087;55.718;21.122;2022-10-23T09:05:14;2.58;;;1.25;;
64498;SDS011;51087;55.718;21.122;2022-10-23T09:13:11;1.98;;;1.10;;
64498;SDS011;51087;55.718;21.122;2022-10-23T09:18:55;2.13;;;1.17;;
64498;SDS011;51087;55.718;21.122;2022-10-23T09:21:24;2.85;;;1.33;;
64498;SDS011;51087;55.718;21.122;2022-10-23T09:23:54;3.33;;;1.35;;
64498;SDS011;51087;55.718;21.122;2022-10-23T09:26:20;4.25;;;0.98;;
64498;SDS011;51087;55.718;21.122;2022-10-23T09:28:47;3.85;;;1.10;;
64498;SDS011;51087;55.718;21.122;2022-10-23T09:31:15;4.30;;;1.50;;
64498;SDS011;51087;55.718;21.122;2022-10-23T09:33:52;3.15;;;1.10;;
64498;SDS011;51087;55.718;21.122;2022-10-23T09:36:21;2.17;;;1.00;;
64498;SDS011;51087;55.718;21.122;2022-10-23T09:38:51;5.88;;;1.38;;
64498;SDS011;51087;55.718;21.122;2022-10-23T09:46:35;8.40;;;1.20;;
64498;SDS011;51087;55.718;21.122;2022-10-23T09:49:05;8.70;;;1.70;;
64498;SDS011;51087;55.718;21.122;2022-10-23T09:51:38;13.13;;;1.60;;
64498;SDS011;51087;55.718;21.122;2022-10-23T09:54:09;3.58;;;1.40;;
64498;SDS011;51087;55.718;21.122;2022-10-23T09:56:40;1.45;;;1.10;;
64498;SDS011;51087;55.718;21.122;2022-10-23T10:01:45;2.35;;;1.08;;
64498;SDS011;51087;55.718;21.122;2022-10-23T10:04:11;3.92;;;1.45;;
64498;SDS011;51087;55.718;21.122;2022-10-23T10:06:37;7.68;;;1.13;;
64498;SDS011;51087;55.718;21.122;2022-10-23T10:09:04;4.00;;;0.93;;
64498;SDS011;51087;55.718;21.122;2022-10-23T10:11:39;1.42;;;0.50;;
64498;SDS011;51087;55.718;21.122;2022-10-23T10:17:21;5.88;;;0.75;;
64498;SDS011;51087;55.718;21.122;2022-10-23T10:25:36;5.50;;;1.50;;
64498;SDS011;51087;55.718;21.122;2022-10-23T10:28:16;3.30;;;1.42;;
64498;SDS011;51087;55.718;21.122;2022-10-23T10:31:03;5.32;;;1.52;;
64498;SDS011;51087;55.718;21.122;2022-10-23T10:56:11;1.95;;;1.15;;
64498;SDS011;51087;55.718;21.122;2022-10-23T10:58:53;2.50;;;1.50;;
64498;SDS011;51087;55.718;21.122;2022-10-23T11:01:26;2.50;;;1.33;;
64498;SDS011;51087;55.718;21.122;2022-10-23T11:06:52;3.22;;;0.80;;
64498;SDS011;51087;55.718;21.122;2022-10-23T11:09:21;2.55;;;0.80;;
64498;SDS011;51087;55.718;21.122;2022-10-23T11:11:50;1.52;;;1.05;;
64498;SDS011;51087;55.718;21.122;2022-10-23T11:14:26;2.05;;;1.35;;
64498;SDS011;51087;55.718;21.122;2022-10-23T11:17:01;1.92;;;1.08;;
64498;SDS011;51087;55.718;21.122;2022-10-23T11:22:28;2.72;;;1.30;;
64498;SDS011;51087;55.718;21.122;2022-10-23T11:30:56;2.13;;;0.80;;
64498;SDS011;51087;55.718;21.122;2022-10-23T11:33:29;1.40;;;0.90;;
64498;SDS011;51087;55.718;21.122;2022-10-23T11:36:05;1.42;;;0.80;;
64498;SDS011;51087;55.718;21.122;2022-10-23T11:38:45;2.80;;;1.50;;
64498;SDS011;51087;55.718;21.122;2022-10-23T11:41:23;15.05;;;2.22;;
64498;SDS011;51087;55.718;21.122;2022-10-23T11:43:57;7.65;;;2.10;;
64498;SDS011;51087;55.718;21.122;2022-10-23T11:46:33;10.18;;;1.98;;
64498;SDS011;51087;55.718;21.122;2022-10-23T11:49:03;22.58;;;1.60;;
64498;SDS011;51087;55.718;21.122;2022-10-23T11:51:37;10.77;;;1.20;;
64498;SDS011;51087;55.718;21.122;2022-10-23T11:54:17;2.70;;;0.95;;
64498;SDS011;51087;55.718;21.122;2022-10-23T12:04:56;1.73;;;0.80;;
64498;SDS011;51087;55.718;21.122;2022-10-23T12:07:28;2.85;;;0.98;;
64498;SDS011;51087;55.718;21.122;2022-10-23T12:12:56;7.50;;;1.40;;
64498;SDS011;51087;55.718;21.122;2022-10-23T12:15:24;13.02;;;1.23;;
64498;SDS011;51087;55.718;21.122;2022-10-23T12:17:51;12.95;;;1.45;;
64498;SDS011;51087;55.718;21.122;2022-10-23T12:20:21;4.93;;;0.90;;
64498;SDS011;51087;55.718;21.122;2022-10-23T12:23:01;9.35;;;1.20;;
64498;SDS011;51087;55.718;21.122;2022-10-23T12:25:40;12.93;;;1.20;;
64498;SDS011;51087;55.718;21.122;2022-10-23T12:39:50;9.43;;;1.70;;
64498;SDS011;51087;55.718;21.122;2022-10-23T12:42:20;6.05;;;1.10;;
64498;SDS011;51087;55.718;21.122;2022-10-23T12:45:01;10.82;;;1.27;;
64498;SDS011;51087;55.718;21.122;2022-10-23T12:47:26;3.75;;;1.27;;
64498;SDS011;51087;55.718;21.122;2022-10-23T12:49:53;6.03;;;1.13;;
64498;SDS011;51087;55.718;21.122;2022-10-23T12:52:19;4.43;;;1.00;;
64498;SDS011;51087;55.718;21.122;2022-10-23T12:54:45;2.10;;;0.95;;
64498;SDS011;51087;55.718;21.122;2022-10-23T12:57:16;1.50;;;1.00;;
64498;SDS011;51087;55.718;21.122;2022-10-23T12:59:46;17.27;;;1.83;;
64498;SDS011;51087;55.718;21.122;2022-10-23T13:02:22;12.45;;;1.70;;
64498;SDS011;51087;55.718;21.122;2022-10-23T13:04:53;9.23;;;1.20;;
64498;SDS011;51087;55.718;21.122;2022-10-23T13:07:23;4.60;;;1.20;;
64498;SDS011;51087;55.718;21.122;2022-10-23T13:09:52;5.18;;;1.13;;
64498;SDS011;51087;55.718;21.122;2022-10-23T13:12:21;1.20;;;0.80;;
64498;SDS011;51087;55.718;21.122;2022-10-23T13:15:34;5.35;;;1.17;;
64498;SDS011;51087;55.718;21.122;2022-10-23T13:17:46;2.58;;;1.35;;
64498;SDS011;51087;55.718;21.122;2022-10-23T13:20:28;3.15;;;1.10;;
64498;SDS011;51087;55.718;21.122;2022-10-23T13:22:57;2.25;;;1.40;;
64498;SDS011;51087;55.718;21.122;2022-10-23T13:25:29;2.95;;;1.17;;
64498;SDS011;51087;55.718;21.122;2022-10-23T13:33:37;2.33;;;1.00;;
64498;SDS011;51087;55.718;21.122;2022-10-23T13:36:05;3.75;;;1.10;;
64498;SDS011;51087;55.718;21.122;2022-10-23T13:38:46;13.50;;;1.70;;
64498;SDS011;51087;55.718;21.122;2022-10-23T13:41:24;11.20;;;1.20;;
64498;SDS011;51087;55.718;21.122;2022-10-23T13:43:51;9.20;;;1.80;;
64498;SDS011;51087;55.718;21.122;2022-10-23T13:46:18;1.88;;;0.95;;
64498;SDS011;51087;55.718;21.122;2022-10-23T13:48:51;6.05;;;1.75;;
64498;SDS011;51087;55.718;21.122;2022-10-23T13:51:18;9.05;;;1.98;;
64498;SDS011;51087;55.718;21.122;2022-10-23T13:53:47;10.15;;;1.10;;
64498;SDS011;51087;55.718;21.122;2022-10-23T13:56:13;9.23;;;2.55;;
64498;SDS011;51087;55.718;21.122;2022-10-23T13:58:40;23.20;;;3.15;;
64498;SDS011;51087;55.718;21.122;2022-10-23T14:01:11;12.18;;;2.17;;
64498;SDS011;51087;55.718;21.122;2022-10-23T14:03:48;19.85;;;1.40;;
64498;SDS011;51087;55.718;21.122;2022-10-23T14:06:15;13.00;;;0.95;;
64498;SDS011;51087;55.718;21.122;2022-10-23T14:08:40;2.30;;;0.90;;
64498;SDS011;51087;55.718;21.122;2022-10-23T14:11:06;3.28;;;0.82;;
64498;SDS011;51087;55.718;21.122;2022-10-23T14:13:33;2.95;;;0.90;;
64498;SDS011;51087;55.718;21.122;2022-10-23T14:15:58;1.67;;;1.00;;
64498;SDS011;51087;55.718;21.122;2022-10-23T14:18:23;3.35;;;0.80;;
64498;SDS011;51087;55.718;21.122;2022-10-23T14:20:49;2.25;;;0.80;;
64498;SDS011;51087;55.718;21.122;2022-10-23T14:23:14;5.30;;;0.90;;
64498;SDS011;51087;55.718;21.122;2022-10-23T14:25:40;4.03;;;1.10;;
64498;SDS011;51087;55.718;21.122;2022-10-23T14:28:05;8.02;;;1.35;;
64498;SDS011;51087;55.718;21.122;2022-10-23T14:30:31;3.72;;;0.90;;
64498;SDS011;51087;55.718;21.122;2022-10-23T14:32:56;5.18;;;1.00;;
64498;SDS011;51087;55.718;21.122;2022-10-23T14:35:22;1.58;;;0.95;;
64498;SDS011;51087;55.718;21.122;2022-10-23T14:37:49;5.57;;;0.90;;
64498;SDS011;51087;55.718;21.122;2022-10-23T14:40:15;8.45;;;1.30;;
64498;SDS011;51087;55.718;21.122;2022-10-23T14:42:40;20.40;;;1.27;;
64498;SDS011;51087;55.718;21.122;2022-10-23T14:45:06;11.90;;;1.27;;
64498;SDS011;51087;55.718;21.122;2022-10-23T14:47:32;9.25;;;1.10;;
64498;SDS011;51087;55.718;21.122;2022-10-23T14:49:57;6.03;;;1.38;;
64498;SDS011;51087;55.718;21.122;2022-10-23T14:52:22;15.27;;;1.20;;
64498;SDS011;51087;55.718;21.122;2022-10-23T14:54:51;10.18;;;1.80;;
64498;SDS011;51087;55.718;21.122;2022-10-23T14:57:18;32.03;;;1.80;;
64498;SDS011;51087;55.718;21.122;2022-10-23T14:59:45;5.82;;;1.27;;
64498;SDS011;51087;55.718;21.122;2022-10-23T15:02:11;7.38;;;1.20;;
64498;SDS011;51087;55.718;21.122;2022-10-23T15:04:37;5.90;;;1.10;;
64498;SDS011;51087;55.718;21.122;2022-10-23T15:07:03;6.32;;;1.20;;
64498;SDS011;51087;55.718;21.122;2022-10-23T15:09:28;27.85;;;2.00;;
64498;SDS011;51087;55.718;21.122;2022-10-23T15:11:56;17.52;;;1.65;;
64498;SDS011;51087;55.718;21.122;2022-10-23T15:14:21;16.90;;;1.98;;
64498;SDS011;51087;55.718;21.122;2022-10-23T15:16:47;5.25;;;0.98;;
64498;SDS011;51087;55.718;21.122;2022-10-23T15:19:12;2.78;;;0.85;;
64498;SDS011;51087;55.718;21.122;2022-10-23T15:21:39;4.00;;;0.80;;
64498;SDS011;51087;55.718;21.122;2022-10-23T15:24:05;2.97;;;1.13;;
64498;SDS011;51087;55.718;21.122;2022-10-23T15:26:30;2.72;;;1.45;;
64498;SDS011;51087;55.718;21.122;2022-10-23T15:28:57;1.92;;;0.98;;
64498;SDS011;51087;55.718;21.122;2022-10-23T15:34:04;1.25;;;1.10;;
64498;SDS011;51087;55.718;21.122;2022-10-23T15:36:31;9.05;;;1.20;;
64498;SDS011;51087;55.718;21.122;2022-10-23T15:38:56;7.15;;;1.60;;
64498;SDS011;51087;55.718;21.122;2022-10-23T15:41:26;14.95;;;1.85;;
64498;SDS011;51087;55.718;21.122;2022-10-23T15:43:53;6.80;;;1.20;;
64498;SDS011;51087;55.718;21.122;2022-10-23T15:46:18;2.33;;;1.38;;
64498;SDS011;51087;55.718;21.122;2022-10-23T15:48:44;7.40;;;1.50;;
64498;SDS011;51087;55.718;21.122;2022-10-23T15:51:09;8.85;;;1.30;;
64498;SDS011;51087;55.718;21.122;2022-10-23T15:53:35;5.78;;;1.60;;
64498;SDS011;51087;55.718;21.122;2022-10-23T15:56:00;7.45;;;2.05;;
64498;SDS011;51087;55.718;21.122;2022-10-23T15:58:26;2.85;;;1.20;;
64498;SDS011;51087;55.718;21.122;2022-10-23T16:00:51;2.90;;;1.10;;
64498;SDS011;51087;55.718;21.122;2022-10-23T16:03:17;1.48;;;1.20;;
64498;SDS011;51087;55.718;21.122;2022-10-23T16:05:42;4.75;;;2.40;;
64498;SDS011;51087;55.718;21.122;2022-10-23T16:08:08;8.05;;;2.25;;
64498;SDS011;51087;55.718;21.122;2022-10-23T16:10:37;4.55;;;1.70;;
64498;SDS011;51087;55.718;21.122;2022-10-23T16:13:03;4.05;;;1.50;;
64498;SDS011;51087;55.718;21.122;2022-10-23T16:15:29;2.25;;;1.60;;
64498;SDS011;51087;55.718;21.122;2022-10-23T16:17:54;2.65;;;1.80;;
64498;SDS011;51087;55.718;21.122;2022-10-23T16:20:19;2.40;;;1.50;;
64498;SDS011;51087;55.718;21.122;2022-10-23T16:22:45;2.65;;;1.50;;
64498;SDS011;51087;55.718;21.122;2022-10-23T16:25:11;2.72;;;1.60;;
64498;SDS011;51087;55.718;21.122;2022-10-23T16:27:36;3.17;;;1.30;;
64498;SDS011;51087;55.718;21.122;2022-10-23T16:30:02;2.45;;;1.50;;
64498;SDS011;51087;55.718;21.122;2022-10-23T16:32:30;1.42;;;1.23;;
64498;SDS011;51087;55.718;21.122;2022-10-23T16:34:55;1.75;;;1.23;;
64498;SDS011;51087;55.718;21.122;2022-10-23T16:37:21;3.08;;;1.13;;
64498;SDS011;51087;55.718;21.122;2022-10-23T16:39:46;1.77;;;1.27;;
64498;SDS011;51087;55.718;21.122;2022-10-23T16:42:11;3.53;;;1.65;;
64498;SDS011;51087;55.718;21.122;2022-10-23T16:44:37;2.10;;;1.45;;
64498;SDS011;51087;55.718;21.122;2022-10-23T16:47:02;3.10;;;1.65;;
64498;SDS011;51087;55.718;21.122;2022-10-23T16:49:28;3.10;;;1.63;;
64498;SDS011;51087;55.718;21.122;2022-10-23T16:51:55;3.40;;;2.00;;
64498;SDS011;51087;55.718;21.122;2022-10-23T16:54:20;3.05;;;1.75;;